Time;durP1;ratioP1;P1;durP2;ratioP2;P2;SDS_P1;SDS_P2;PMS_P1;PMS_P2;Temp;Humidity;BMP_temperature;BMP_pressure;BME280_temperature;BME280_humidity;BME280_pressure;Samples;Min_cycle;Max_cycle;Signal;HPM_P1;HPM_P2
2023/12/01 00:02:20;;;;;;;17.90;8.90;;;;;;;-0.18;78.91;99356.58;79883;1292;3011991;-60
2023/12/01 00:04:48;;;;;;;22.50;9.30;;;;;;;-0.15;78.84;99349.29;78647;1295;3050585;-62
2023/12/01 00:07:15;;;;;;;23.00;10.60;;;;;;;-0.19;79.31;99346.77;80005;1295;3018730;-60
2023/12/01 00:09:42;;;;;;;20.60;9.30;;;;;;;-0.25;80.15;99329.86;80066;1295;3012001;-63
2023/12/01 00:12:10;;;;;;;21.00;9.10;;;;;;;0.25;79.38;99320.41;78765;1295;3026453;-61
2023/12/01 00:14:40;;;;;;;21.60;10.10;;;;;;;0.96;77.11;99306.27;79751;1295;3013199;-61
2023/12/01 00:17:09;;;;;;;17.70;9.70;;;;;;;0.95;76.05;99297.48;79127;1293;3011943;-61
2023/12/01 00:19:36;;;;;;;21.60;9.70;;;;;;;0.84;76.06;99306.52;80056;1292;3012768;-61
2023/12/01 00:22:06;;;;;;;22.60;10.10;;;;;;;0.69;76.65;99292.92;79633;1292;3013247;-63
2023/12/01 00:24:35;;;;;;;23.60;10.00;;;;;;;0.45;77.19;99289.67;78734;1293;3050032;-61
2023/12/01 00:27:02;;;;;;;28.00;11.10;;;;;;;0.54;77.27;99258.78;79907;1292;3013665;-62
2023/12/01 00:29:29;;;;;;;30.70;12.60;;;;;;;0.48;77.44;99238.77;79831;1292;3011558;-62
2023/12/01 00:31:57;;;;;;;33.00;12.70;;;;;;;0.28;78.67;99245.59;78548;1295;3052259;-62
2023/12/01 00:34:24;;;;;;;40.80;15.70;;;;;;;0.31;78.84;99222.61;79826;1292;3013078;-60
2023/12/01 00:36:51;;;;;;;37.20;14.50;;;;;;;0.18;79.32;99212.57;79802;1292;3012102;-60
2023/12/01 00:39:19;;;;;;;39.60;16.40;;;;;;;0.11;79.95;99216.14;78582;1297;3028824;-61
2023/12/01 16:43:32;;;;;;;20.60;10.30;;;;;;;9.88;86.31;98255.61;80260;1304;3013124;-62
2023/12/01 16:46:00;;;;;;;21.00;10.90;;;;;;;9.58;85.49;98248.42;79298;1302;3014701;-61
2023/12/01 16:48:26;;;;;;;26.90;11.60;;;;;;;9.34;85.35;98247.92;79073;1301;3012808;-62
2023/12/01 16:50:54;;;;;;;25.50;11.10;;;;;;;8.99;86.11;98256.95;78103;1301;3053420;-62
2023/12/01 16:53:21;;;;;;;24.30;11.60;;;;;;;8.79;86.87;98253.17;79455;1302;3013189;-60
2023/12/01 16:55:48;;;;;;;25.40;10.50;;;;;;;8.47;88.06;98264.38;76869;1304;3493794;-61
2023/12/01 16:58:17;;;;;;;;;;;;;;;8.58;88.51;98255.55;78441;1298;3026622;-62
2023/12/01 17:00:44;;;;;;;21.80;10.20;;;;;;;9.15;87.20;98256.63;79731;1296;3014931;-61
2023/12/01 17:03:11;;;;;;;25.10;11.00;;;;;;;9.38;85.14;98254.83;79622;1296;3012841;-61
2023/12/01 17:05:39;;;;;;;34.30;13.80;;;;;;;9.37;84.91;98246.34;78325;1301;3052435;-59
2023/12/01 17:08:06;;;;;;;34.10;14.20;;;;;;;9.16;85.08;98248.41;79641;1298;3018389;-60
2023/12/01 17:10:33;;;;;;;31.70;14.10;;;;;;;8.88;85.83;98249.27;79601;1300;3011598;-60
2023/12/01 17:13:01;;;;;;;42.70;16.00;;;;;;;8.65;86.53;98234.13;78360;1298;3026414;-61
2023/12/01 17:15:27;;;;;;;42.00;17.40;;;;;;;8.54;87.36;98230.04;79783;1301;3011676;-61
2023/12/01 17:17:54;;;;;;;30.60;12.30;;;;;;;8.40;88.20;98230.11;79541;1298;3011440;-60
2023/12/01 17:20:23;;;;;;;28.10;11.90;;;;;;;8.80;87.64;98231.98;78698;1295;3028945;-61
2023/12/01 17:22:49;;;;;;;25.20;12.50;;;;;;;9.32;85.43;98223.60;79559;1296;3012949;-62
2023/12/01 17:25:16;;;;;;;29.00;13.10;;;;;;;9.30;84.60;98219.71;79582;1295;3011798;-61
2023/12/01 17:27:45;;;;;;;23.70;13.30;;;;;;;9.11;84.99;98220.67;78485;1295;3026427;-61
2023/12/01 17:30:12;;;;;;;23.70;12.60;;;;;;;8.92;85.51;98223.46;79657;1298;3013039;-62
2023/12/01 17:32:39;;;;;;;23.10;12.70;;;;;;;8.59;86.54;98235.23;79638;1299;3011465;-62
2023/12/01 17:35:08;;;;;;;27.20;13.50;;;;;;;8.41;87.29;98251.48;78379;1301;3052527;-64
2023/12/01 17:37:35;;;;;;;23.50;12.50;;;;;;;8.17;88.40;98257.04;79836;1297;3013744;-62
2023/12/01 17:40:03;;;;;;;29.20;10.90;;;;;;;8.14;88.93;98258.11;79767;1295;3011662;-63
2023/12/01 17:42:32;;;;;;;20.70;10.40;;;;;;;8.72;88.45;98253.70;78374;1301;3049719;-63
2023/12/01 17:44:59;;;;;;;24.40;11.20;;;;;;;9.19;86.04;98257.58;79769;1300;3013596;-61
2023/12/01 17:47:25;;;;;;;29.00;13.10;;;;;;;9.11;85.28;98257.50;79857;1295;3011791;-63
2023/12/01 17:49:53;;;;;;;25.00;11.90;;;;;;;8.83;86.21;98253.08;78375;1301;3051895;-63
2023/12/01 17:52:20;;;;;;;28.20;13.20;;;;;;;8.72;86.94;98255.30;79717;1299;3018615;-63
2023/12/01 17:54:47;;;;;;;30.10;14.50;;;;;;;8.59;87.20;98259.88;79534;1295;3013240;-62
2023/12/01 17:57:15;;;;;;;25.40;14.30;;;;;;;8.33;88.21;98261.16;78384;1301;3026556;-62
2023/12/01 17:59:42;;;;;;;21.00;10.40;;;;;;;8.19;88.79;98252.70;79595;1297;3013139;-62
2023/12/01 18:02:09;;;;;;;24.60;11.40;;;;;;;8.48;88.11;98252.09;79701;1298;3011194;-62
2023/12/01 18:04:37;;;;;;;28.90;15.00;;;;;;;8.80;86.70;98250.46;78297;1298;3027981;-64
2023/12/01 18:07:04;;;;;;;41.20;21.40;;;;;;;8.84;85.85;98251.45;79656;1295;3019144;-64
2023/12/01 18:09:31;;;;;;;33.60;19.40;;;;;;;8.79;86.33;98254.91;79397;1300;3011445;-62
2023/12/01 18:11:59;;;;;;;38.00;20.50;;;;;;;8.77;86.50;98255.77;78630;1297;3026179;-65
2023/12/01 18:14:25;;;;;;;46.40;23.10;;;;;;;8.59;86.64;98260.16;79731;1300;3013485;-63
2023/12/01 18:16:55;;;;;;;47.90;22.70;;;;;;;8.37;87.14;98263.83;79577;1297;3011587;-61
2023/12/01 18:19:23;;;;;;;34.30;17.30;;;;;;;8.21;87.80;98262.68;78319;1299;3051982;-63
2023/12/01 18:21:50;;;;;;;43.20;21.10;;;;;;;8.66;87.14;98254.98;79724;1300;3014318;-61
2023/12/01 18:24:17;;;;;;;42.40;22.40;;;;;;;8.85;85.03;98249.64;79493;1295;3013073;-61
2023/12/01 18:26:45;;;;;;;40.00;22.20;;;;;;;8.69;84.82;98256.38;78171;1295;3048424;-62
2023/12/01 18:29:12;;;;;;;41.90;20.60;;;;;;;8.54;85.27;98262.27;79626;1296;3013745;-61
2023/12/01 18:31:39;;;;;;;33.80;18.90;;;;;;;8.37;85.74;98269.20;79531;1299;3011817;-62
2023/12/01 18:34:08;;;;;;;33.00;17.30;;;;;;;8.07;86.31;98267.80;78096;1297;3051927;-62
2023/12/01 18:36:34;;;;;;;38.30;19.10;;;;;;;7.83;87.19;98271.20;79824;1295;3014802;-63
2023/12/01 18:39:01;;;;;;;43.80;20.10;;;;;;;7.52;88.46;98274.54;79750;1298;3011720;-61
2023/12/01 18:41:29;;;;;;;31.00;13.90;;;;;;;7.27;89.78;98273.42;78150;1301;3049353;-64
2023/12/01 18:43:56;;;;;;;33.10;17.40;;;;;;;7.70;89.67;98274.71;79466;1301;3013364;-62
2023/12/01 18:46:23;;;;;;;35.10;18.80;;;;;;;8.31;87.53;98275.77;79411;1301;3011695;-62
2023/12/01 18:48:51;;;;;;;38.20;20.20;;;;;;;8.34;86.11;98274.55;78578;1300;3025705;-63
2023/12/01 18:51:18;;;;;;;38.90;21.30;;;;;;;8.03;86.49;98277.83;79812;1300;3019176;-61
2023/12/01 18:53:45;;;;;;;43.00;21.90;;;;;;;7.66;88.04;98282.96;79573;1295;3011476;-63
2023/12/01 18:56:13;;;;;;;37.90;20.30;;;;;;;7.33;89.63;98280.68;78497;1301;3028870;-64
2023/12/01 18:58:40;;;;;;;36.50;20.60;;;;;;;7.09;91.09;98282.23;79534;1296;3013865;-63
2023/12/01 19:01:07;;;;;;;24.20;13.30;;;;;;;6.86;91.97;98277.59;79460;1295;3011636;-64
2023/12/01 19:03:35;;;;;;;23.90;13.60;;;;;;;7.31;91.28;98275.38;78342;1298;3051681;-62
2023/12/01 19:06:03;;;;;;;26.20;14.60;;;;;;;7.64;88.96;98278.27;79350;1298;3012667;-62
2023/12/01 19:08:29;;;;;;;22.50;13.20;;;;;;;7.61;88.29;98282.77;79464;1300;3013559;-60
2023/12/01 19:10:58;;;;;;;21.40;13.40;;;;;;;7.31;88.71;98286.02;78552;1295;3049367;-62
2023/12/01 19:13:25;;;;;;;24.40;15.00;;;;;;;6.96;89.68;98300.10;79858;1296;3013529;-63
2023/12/01 19:15:52;;;;;;;27.30;15.90;;;;;;;6.63;91.43;98308.78;79561;1296;3011474;-60
2023/12/01 19:18:21;;;;;;;25.50;15.70;;;;;;;6.53;92.53;98314.34;78520;1301;3053117;-62
2023/12/01 19:20:48;;;;;;;21.50;11.90;;;;;;;6.36;92.97;98314.85;79635;1300;3011686;-63
2023/12/01 19:23:15;;;;;;;21.20;12.10;;;;;;;6.84;92.31;98316.39;79552;1300;3012948;-63
2023/12/01 19:25:43;;;;;;;25.00;14.50;;;;;;;7.01;90.13;98314.44;78284;1301;3049264;-63
2023/12/01 19:28:10;;;;;;;25.10;13.50;;;;;;;6.81;89.92;98317.42;79502;1299;3013539;-63
2023/12/01 19:30:37;;;;;;;27.90;16.40;;;;;;;6.63;90.59;98321.73;79581;1301;3013100;-63
2023/12/01 19:33:05;;;;;;;28.10;15.50;;;;;;;6.37;91.46;98316.88;78230;1300;3025487;-63
2023/12/01 19:35:31;;;;;;;29.10;16.00;;;;;;;6.12;92.37;98322.91;79512;1296;3018692;-63
2023/12/01 19:37:58;;;;;;;28.90;16.10;;;;;;;6.12;92.82;98315.27;79558;1300;3012887;-62
2023/12/01 19:40:26;;;;;;;19.80;11.60;;;;;;;5.77;93.51;98319.73;78450;1301;3028379;-63
2023/12/01 19:42:53;;;;;;;19.30;11.30;;;;;;;6.30;92.87;98320.61;79605;1295;3013032;-65
2023/12/01 19:45:20;;;;;;;22.90;13.10;;;;;;;6.56;90.32;98319.19;79500;1301;3011801;-64
2023/12/01 19:47:48;;;;;;;25.00;13.60;;;;;;;6.45;89.98;98314.10;78602;1298;3026867;-65
2023/12/01 19:50:15;;;;;;;24.50;13.20;;;;;;;6.39;90.10;98313.41;79636;1300;3013756;-64
2023/12/01 19:52:42;;;;;;;29.50;14.40;;;;;;;6.46;90.49;98303.30;79647;1296;3011548;-65
2023/12/01 19:55:10;;;;;;;27.60;14.50;;;;;;;6.52;90.99;98304.63;78578;1296;3049301;-61
2023/12/01 19:57:37;;;;;;;24.70;12.10;;;;;;;6.30;90.38;98314.65;79857;1301;3013627;-62
2023/12/01 20:00:05;;;;;;;17.20;9.80;;;;;;;5.96;90.03;98325.05;79570;1301;3011492;-62
2023/12/01 20:02:39;;;;;;;18.60;10.10;;;;;;;6.36;89.32;98332.25;78758;1299;3053821;-63
2023/12/01 20:05:07;;;;;;;16.90;9.60;;;;;;;6.71;87.41;98334.45;79868;1301;3013228;-65
2023/12/01 20:07:34;;;;;;;19.00;11.40;;;;;;;6.82;86.52;98328.67;79823;1301;3011536;-62
2023/12/01 20:10:03;;;;;;;22.70;12.20;;;;;;;6.71;86.59;98329.86;78629;1301;3049906;-62
2023/12/01 20:12:30;;;;;;;21.40;12.20;;;;;;;6.52;86.97;98327.25;79618;1295;3013781;-60
2023/12/01 20:14:57;;;;;;;22.60;12.80;;;;;;;6.45;87.73;98327.67;79673;1298;3011793;-63
2023/12/01 20:17:25;;;;;;;21.90;12.80;;;;;;;6.20;88.16;98336.32;78475;1297;3052125;-66
2023/12/01 20:19:52;;;;;;;20.60;12.10;;;;;;;5.89;89.00;98343.67;79757;1298;3013466;-59
2023/12/01 20:22:19;;;;;;;17.40;9.40;;;;;;;5.75;90.04;98342.65;79539;1301;3011813;-62
2023/12/01 20:24:47;;;;;;;18.00;9.50;;;;;;;6.08;89.48;98340.50;78621;1301;3026474;-66
2023/12/01 20:27:14;;;;;;;17.10;8.60;;;;;;;6.63;87.35;98338.55;79509;1296;3013257;-63
2023/12/01 20:29:41;;;;;;;17.10;10.10;;;;;;;6.47;86.40;98336.29;79804;1300;3011790;-64
2023/12/01 20:32:09;;;;;;;18.10;10.30;;;;;;;6.22;87.13;98337.95;78886;1298;3026664;-64
2023/12/01 20:34:41;;;;;;;18.90;10.90;;;;;;;6.01;88.02;98346.98;80002;1295;3013619;-64
2023/12/01 20:37:10;;;;;;;18.60;10.50;;;;;;;5.78;89.18;98346.43;78472;1296;3057374;-63
2023/12/01 20:39:37;;;;;;;15.20;8.70;;;;;;;5.69;89.41;98342.27;80021;1295;3013329;-63
2023/12/01 20:42:04;;;;;;;17.40;8.50;;;;;;;5.71;89.62;98339.02;79828;1299;3011777;-63
2023/12/01 20:44:32;;;;;;;9.50;6.00;;;;;;;5.73;89.43;98344.11;78547;1301;3052141;-64
2023/12/01 20:46:59;;;;;;;12.20;7.80;;;;;;;6.24;87.88;98346.90;79805;1301;3012928;-64
2023/12/01 20:49:26;;;;;;;12.50;7.40;;;;;;;6.73;84.99;98343.88;79745;1301;3011936;-63
2023/12/01 20:51:54;;;;;;;12.10;7.20;;;;;;;6.62;83.63;98345.77;78733;1299;3026968;-64
2023/12/01 20:54:21;;;;;;;14.60;8.30;;;;;;;6.35;84.03;98340.09;79804;1295;3019098;-64
2023/12/01 20:56:48;;;;;;;13.70;8.60;;;;;;;6.26;84.62;98335.95;80060;1296;3011884;-65
2023/12/01 20:59:16;;;;;;;12.90;7.90;;;;;;;5.92;85.27;98333.99;78526;1298;3028397;-63
2023/12/01 21:01:43;;;;;;;17.00;9.10;;;;;;;5.72;85.72;98346.27;79851;1300;3018653;-61
2023/12/01 21:04:09;;;;;;;16.00;10.20;;;;;;;5.55;86.10;98356.64;79432;1301;3012043;-64
2023/12/01 21:06:38;;;;;;;18.60;10.70;;;;;;;5.42;86.66;98359.12;78420;1300;3028023;-62
2023/12/01 21:09:05;;;;;;;13.30;6.50;;;;;;;5.32;87.16;98360.21;79497;1300;3013673;-62
2023/12/01 21:11:32;;;;;;;16.10;9.00;;;;;;;5.77;85.95;98360.61;79440;1298;3011640;-62
2023/12/01 21:14:00;;;;;;;16.60;9.30;;;;;;;5.98;84.30;98372.23;78160;1301;3052126;-63
2023/12/01 21:16:27;;;;;;;14.20;8.50;;;;;;;5.97;84.40;98375.37;79402;1301;3013084;-63
2023/12/01 21:18:54;;;;;;;19.90;11.30;;;;;;;5.90;84.55;98378.05;79921;1300;3012962;-63
2023/12/01 21:21:22;;;;;;;19.20;12.00;;;;;;;5.63;85.36;98371.41;78721;1301;3026499;-63
2023/12/01 21:23:49;;;;;;;18.30;10.80;;;;;;;5.41;86.81;98367.70;79888;1301;3012713;-63
2023/12/01 21:26:16;;;;;;;23.10;12.20;;;;;;;5.44;87.48;98361.77;79430;1300;3011714;-63
2023/12/01 21:28:44;;;;;;;22.20;12.70;;;;;;;5.37;87.83;98363.23;78800;1298;3026588;-63
2023/12/01 21:31:11;;;;;;;19.40;9.90;;;;;;;5.18;88.60;98351.95;79987;1300;3018301;-62
2023/12/01 21:33:37;;;;;;;20.80;11.00;;;;;;;5.52;87.99;98351.05;79605;1296;3011776;-61
2023/12/01 21:36:07;;;;;;;19.60;12.10;;;;;;;6.12;86.11;98366.17;78776;1296;3028206;-60
2023/12/01 21:38:33;;;;;;;18.40;10.00;;;;;;;6.09;84.38;98378.16;80057;1295;3013441;-61
2023/12/01 21:41:00;;;;;;;17.50;9.90;;;;;;;5.87;83.62;98386.76;79897;1295;3011561;-62
2023/12/01 21:43:28;;;;;;;15.20;8.90;;;;;;;5.56;84.00;98398.77;78752;1301;3051777;-63
2023/12/01 21:45:55;;;;;;;15.50;8.80;;;;;;;5.17;84.67;98395.94;80409;1299;3012631;-61
2023/12/01 21:48:22;;;;;;;15.60;8.90;;;;;;;5.01;84.82;98400.82;80064;1297;3011649;-63
2023/12/01 21:50:50;;;;;;;12.60;8.00;;;;;;;4.84;85.40;98410.40;78785;1295;3026075;-60
2023/12/01 21:53:16;;;;;;;13.20;8.40;;;;;;;4.65;85.51;98412.29;79695;1295;3012646;-62
2023/12/01 21:55:44;;;;;;;17.10;9.50;;;;;;;4.56;86.22;98402.02;79673;1301;3011829;-62
2023/12/01 21:58:13;;;;;;;11.70;6.40;;;;;;;4.46;86.74;98401.83;78403;1300;3052389;-62
2023/12/01 22:00:41;;;;;;;13.70;8.00;;;;;;;5.08;85.86;98394.34;79749;1295;3014145;-62
2023/12/01 22:03:08;;;;;;;11.90;6.90;;;;;;;5.64;83.37;98399.00;79313;1300;3011696;-62
2023/12/01 22:05:36;;;;;;;14.00;8.10;;;;;;;5.56;82.01;98404.88;78257;1300;3055996;-61
2023/12/01 22:08:03;;;;;;;15.20;9.10;;;;;;;5.39;82.43;98413.42;79391;1296;3013435;-62
2023/12/01 22:10:31;;;;;;;14.40;8.70;;;;;;;5.30;83.21;98421.08;79781;1295;3011623;-60
2023/12/01 22:12:59;;;;;;;14.40;8.80;;;;;;;5.27;83.58;98410.65;78294;1301;3051808;-62
2023/12/01 22:15:26;;;;;;;12.80;8.00;;;;;;;5.10;83.19;98416.13;79484;1301;3021314;-63
2023/12/01 22:17:53;;;;;;;10.50;7.20;;;;;;;4.79;83.49;98407.88;79452;1296;3013630;-62
2023/12/01 22:20:21;;;;;;;12.90;8.00;;;;;;;4.70;83.78;98410.95;78242;1301;3028750;-62
2023/12/01 22:22:48;;;;;;;13.30;8.20;;;;;;;4.61;84.31;98413.16;79477;1299;3013000;-63
2023/12/01 22:25:14;;;;;;;11.00;6.10;;;;;;;4.44;85.10;98414.60;79655;1295;3013153;-62
2023/12/01 22:27:42;;;;;;;11.70;7.30;;;;;;;4.80;84.60;98414.05;78258;1300;3025406;-61
2023/12/01 22:30:10;;;;;;;10.90;7.00;;;;;;;5.28;83.16;98411.08;79525;1295;3013101;-63
2023/12/01 22:32:37;;;;;;;11.60;7.40;;;;;;;5.43;81.99;98418.98;79478;1296;3013973;-61
2023/12/01 22:35:05;;;;;;;11.80;8.00;;;;;;;5.44;82.10;98432.63;78216;1295;3056339;-61
2023/12/01 22:37:32;;;;;;;12.30;8.10;;;;;;;5.26;82.14;98432.42;79515;1295;3013664;-63
2023/12/01 22:39:59;;;;;;;13.70;8.90;;;;;;;5.15;82.70;98424.85;79532;1295;3011469;-60
2023/12/01 22:42:27;;;;;;;13.20;8.90;;;;;;;5.14;83.26;98423.53;78357;1301;3053314;-62
2023/12/01 22:44:54;;;;;;;15.30;8.40;;;;;;;4.98;83.64;98424.23;79600;1301;3018355;-60
2023/12/01 22:47:20;;;;;;;13.90;9.70;;;;;;;4.89;84.30;98433.02;79399;1301;3011665;-60
2023/12/01 22:49:48;;;;;;;17.70;9.40;;;;;;;4.87;84.23;98426.70;78409;1301;3027323;-61
2023/12/01 22:52:15;;;;;;;11.20;6.90;;;;;;;4.75;84.33;98424.05;79557;1300;3013251;-63
2023/12/01 22:54:42;;;;;;;13.20;8.60;;;;;;;5.20;83.78;98417.25;79542;1295;3011813;-61
2023/12/01 22:57:10;;;;;;;13.30;8.30;;;;;;;5.85;82.10;98416.58;78468;1299;3028522;-65
2023/12/01 22:59:37;;;;;;;13.80;7.70;;;;;;;5.96;81.17;98414.25;79538;1301;3013508;-60
2023/12/01 23:02:05;;;;;;;12.60;7.50;;;;;;;5.92;80.73;98408.88;79417;1296;3011713;-62
2023/12/01 23:04:33;;;;;;;11.40;7.20;;;;;;;5.75;81.06;98406.38;78218;1301;3056355;-62
2023/12/01 23:06:59;;;;;;;12.80;8.10;;;;;;;5.66;81.80;98408.28;79529;1300;3020196;-62
2023/12/01 23:09:26;;;;;;;14.40;7.70;;;;;;;5.53;82.00;98401.94;79450;1301;3011782;-61
2023/12/01 23:11:54;;;;;;;14.60;8.40;;;;;;;5.38;81.90;98399.77;78089;1301;3028148;-62
2023/12/01 23:14:21;;;;;;;11.80;7.40;;;;;;;5.29;82.13;98417.48;79474;1301;3013598;-63
2023/12/01 23:16:48;;;;;;;12.60;8.30;;;;;;;5.12;82.24;98440.10;79439;1296;3011885;-61
2023/12/01 23:19:16;;;;;;;12.20;7.70;;;;;;;4.98;82.89;98446.08;78283;1301;3026358;-61
2023/12/01 23:21:43;;;;;;;11.80;8.60;;;;;;;4.92;83.45;98451.09;79547;1301;3013295;-62
2023/12/01 23:24:10;;;;;;;11.00;7.40;;;;;;;4.85;83.98;98451.80;79334;1295;3011640;-61
2023/12/01 23:26:38;;;;;;;11.10;7.40;;;;;;;5.31;83.54;98457.11;78392;1301;3027670;-60
2023/12/01 23:29:06;;;;;;;11.30;7.30;;;;;;;5.85;81.10;98463.88;79525;1301;3011766;-62
2023/12/01 23:31:32;;;;;;;12.70;7.70;;;;;;;6.11;80.64;98463.99;79652;1301;3013106;-59
2023/12/01 23:34:01;;;;;;;10.40;7.20;;;;;;;5.90;80.10;98451.39;78324;1300;3057567;-61
2023/12/01 23:36:27;;;;;;;11.90;8.40;;;;;;;5.73;80.63;98456.19;79459;1301;3018357;-64
2023/12/01 23:38:54;;;;;;;14.80;8.90;;;;;;;5.40;81.36;98459.58;79550;1295;3012664;-63
2023/12/01 23:41:22;;;;;;;13.20;9.00;;;;;;;5.27;81.88;98449.56;78353;1301;3025103;-65
2023/12/01 23:43:49;;;;;;;15.90;8.90;;;;;;;5.20;82.56;98447.00;79610;1300;3020291;-62
2023/12/01 23:46:16;;;;;;;13.10;8.90;;;;;;;5.11;83.11;98447.63;79410;1301;3012183;-61
2023/12/01 23:48:44;;;;;;;14.10;9.20;;;;;;;5.06;83.15;98444.29;78349;1296;3026381;-61
2023/12/01 23:51:11;;;;;;;14.60;10.00;;;;;;;5.01;83.62;98440.16;79675;1296;3013617;-62
2023/12/01 23:53:38;;;;;;;14.40;7.50;;;;;;;4.91;84.26;98447.47;79455;1295;3012935;-61
2023/12/01 23:56:07;;;;;;;13.80;7.90;;;;;;;5.42;83.29;98451.85;78343;1301;3052183;-62
2023/12/01 23:58:33;;;;;;;13.90;8.10;;;;;;;6.03;81.36;98452.06;79586;1301;3015823;-61
